Time;durP1;ratioP1;P1;durP2;ratioP2;P2;SDS_P1;SDS_P2;PMS_P1;PMS_P2;Temp;Humidity;BMP_temperature;BMP_pressure;BME280_temperature;BME280_humidity;BME280_pressure;Samples;Min_cycle;Max_cycle;Signal;HPM_P1;HPM_P2
2022/10/23 00:01:30;;;;;;;11.38;5.85;;;9.10;99.90;;;;;;5029669;28;20087;-70
2022/10/23 00:04:00;;;;;;;13.32;5.25;;;9.10;99.90;;;;;;5044389;28;20059;-71
2022/10/23 00:06:28;;;;;;;18.50;6.13;;;9.20;99.90;;;;;;5046067;28;20449;-71
2022/10/23 00:08:54;;;;;;;18.77;6.18;;;9.30;99.90;;;;;;5045734;28;20043;-71
2022/10/23 00:11:23;;;;;;;12.00;5.65;;;9.40;99.90;;;;;;5046664;28;20032;-69
2022/10/23 00:13:50;;;;;;;11.07;5.70;;;9.30;99.90;;;;;;5045767;28;20044;-69
2022/10/23 00:16:16;;;;;;;16.75;5.80;;;9.40;99.90;;;;;;5047543;28;20041;-69
2022/10/23 00:18:41;;;;;;;10.75;5.75;;;9.30;99.90;;;;;;5047970;28;20043;-68
2022/10/23 00:21:09;;;;;;;9.88;5.07;;;9.10;99.90;;;;;;5046925;28;20064;-69
2022/10/23 00:23:35;;;;;;;17.08;5.57;;;9.10;99.90;;;;;;5046466;28;20577;-69
2022/10/23 00:26:03;;;;;;;14.55;5.88;;;9.00;99.90;;;;;;5045089;28;20029;-70
2022/10/23 00:28:28;;;;;;;13.77;5.97;;;9.00;99.90;;;;;;5046133;28;20035;-68
2022/10/23 00:30:54;;;;;;;20.73;7.22;;;8.90;99.90;;;;;;5047031;28;20033;-71
2022/10/23 00:33:19;;;;;;;18.38;6.00;;;8.90;99.90;;;;;;5046692;28;20436;-70
2022/10/23 00:35:45;;;;;;;15.25;6.10;;;8.90;99.90;;;;;;5046136;28;20489;-69
2022/10/23 00:38:11;;;;;;;11.57;5.40;;;8.90;99.90;;;;;;5046689;28;20040;-69
2022/10/23 00:40:38;;;;;;;15.10;4.90;;;8.90;99.90;;;;;;5044450;28;20466;-68
2022/10/23 00:43:05;;;;;;;9.55;5.15;;;8.90;99.90;;;;;;5045635;28;20072;-70
2022/10/23 00:45:32;;;;;;;20.88;5.72;;;9.00;99.90;;;;;;5049663;28;20040;-68
2022/10/23 00:48:00;;;;;;;13.73;5.55;;;9.20;99.90;;;;;;5050538;28;20032;-70
2022/10/23 00:50:28;;;;;;;11.18;5.35;;;9.00;99.90;;;;;;5050925;28;20037;-68
2022/10/23 00:52:55;;;;;;;11.15;5.40;;;8.90;99.90;;;;;;5049921;28;20079;-71
2022/10/23 00:55:24;;;;;;;9.30;5.28;;;9.00;99.90;;;;;;5050682;28;20049;-71
2022/10/23 00:57:50;;;;;;;16.75;5.53;;;9.20;99.90;;;;;;5047680;28;20074;-71
2022/10/23 01:00:39;;;;;;;11.13;5.68;;;9.00;99.90;;;;;;5063467;28;20028;-68
2022/10/23 01:03:04;;;;;;;28.65;6.20;;;9.20;99.90;;;;;;5030908;28;20094;-71
2022/10/23 01:05:39;;;;;;;12.68;5.30;;;8.90;99.90;;;;;;5049936;28;20128;-69
2022/10/23 01:08:15;;;;;;;14.70;6.03;;;9.00;99.90;;;;;;5049457;28;20040;-69
2022/10/23 01:10:57;;;;;;;13.38;5.22;;;9.10;99.90;;;;;;5049374;28;20040;-69
2022/10/23 01:13:42;;;;;;;10.32;5.47;;;9.10;99.90;;;;;;5048439;28;20087;-68
2022/10/23 01:16:15;;;;;;;19.63;6.28;;;9.40;99.90;;;;;;5048259;28;20071;-70
2022/10/23 01:18:48;;;;;;;16.60;5.57;;;9.30;99.90;;;;;;5048897;28;20052;-70
2022/10/23 01:21:44;;;;;;;12.88;5.60;;;8.80;99.90;;;;;;5044204;28;20068;-68
2022/10/23 01:24:43;;;;;;;20.73;6.20;;;8.90;99.90;;;;;;5030584;28;20056;-70
2022/10/23 01:27:15;;;;;;;13.65;6.03;;;8.80;99.90;;;;;;5006516;28;20055;-69
2022/10/23 01:29:50;;;;;;;8.65;4.70;;;8.70;99.90;;;;;;5045544;28;20408;-70
2022/10/23 01:32:27;;;;;;;16.13;5.28;;;8.70;99.90;;;;;;5049102;28;20950;-68
2022/10/23 01:35:17;;;;;;;12.52;6.10;;;8.60;99.90;;;;;;5048541;28;20021;-67
2022/10/23 01:37:46;;;;;;;10.40;5.28;;;8.60;99.90;;;;;;5049253;28;20040;-71
2022/10/23 01:40:52;;;;;;;13.77;5.03;;;8.60;99.90;;;;;;5048590;28;20099;-68
2022/10/23 01:43:35;;;;;;;10.88;5.00;;;8.50;99.90;;;;;;5047145;28;20634;-70
2022/10/23 01:46:08;;;;;;;14.88;5.35;;;8.40;99.90;;;;;;5048859;28;20496;-71
2022/10/23 01:48:36;;;;;;;13.40;5.28;;;8.40;99.90;;;;;;5047439;28;20025;-70
2022/10/23 01:51:05;;;;;;;12.70;5.10;;;8.50;99.90;;;;;;5047763;28;20089;-71
2022/10/23 01:53:35;;;;;;;11.43;4.85;;;8.50;99.90;;;;;;5050494;28;20037;-70
2022/10/23 01:56:05;;;;;;;14.40;5.10;;;8.50;99.90;;;;;;5049151;28;20043;-73
2022/10/23 01:58:33;;;;;;;18.77;4.43;;;8.30;99.90;;;;;;5049451;28;20065;-68
2022/10/23 02:01:03;;;;;;;8.90;4.35;;;8.40;99.90;;;;;;5049366;28;20033;-72
2022/10/23 02:03:31;;;;;;;13.45;4.90;;;8.60;99.90;;;;;;5048556;28;20033;-70
2022/10/23 02:05:57;;;;;;;12.23;4.80;;;8.50;99.90;;;;;;5049363;28;20017;-68
2022/10/23 02:08:24;;;;;;;8.55;4.35;;;8.30;99.90;;;;;;5048885;28;20428;-68
2022/10/23 02:11:11;;;;;;;11.35;4.43;;;8.10;99.90;;;;;;5048730;28;20037;-68
2022/10/23 02:14:00;;;;;;;16.42;4.93;;;8.00;99.90;;;;;;5050268;28;20048;-68
2022/10/23 02:16:52;;;;;;;24.15;5.00;;;8.00;99.90;;;;;;5047730;28;20059;-69
2022/10/23 02:19:32;;;;;;;13.25;4.90;;;8.10;99.90;;;;;;5047241;28;20107;-69
2022/10/23 02:22:15;;;;;;;7.18;4.45;;;8.20;99.90;;;;;;5048799;28;20028;-70
2022/10/23 02:24:50;;;;;;;10.73;4.97;;;8.20;99.90;;;;;;5048777;28;20078;-69
2022/10/23 02:27:30;;;;;;;16.50;5.05;;;8.30;99.90;;;;;;5047565;28;20127;-69
2022/10/23 02:30:00;;;;;;;;;;;8.40;99.90;;;;;;5050173;28;20411;-72
2022/10/23 02:32:27;;;;;;;13.95;4.40;;;8.40;99.90;;;;;;5046043;28;20448;-71
2022/10/23 02:34:53;;;;;;;11.07;4.82;;;8.40;99.90;;;;;;5049782;28;20037;-70
2022/10/23 02:37:19;;;;;;;13.55;4.97;;;8.30;99.90;;;;;;5045243;28;20404;-67
2022/10/23 02:39:45;;;;;;;10.23;5.20;;;8.30;99.90;;;;;;5049807;28;20025;-69
2022/10/23 02:42:20;;;;;;;10.00;4.65;;;8.20;99.90;;;;;;5047120;28;20033;-69
2022/10/23 02:45:04;;;;;;;8.52;4.30;;;8.30;99.90;;;;;;5049371;28;20044;-70
2022/10/23 02:48:00;;;;;;;7.68;4.30;;;8.20;99.90;;;;;;5046497;28;20040;-69
2022/10/23 02:51:04;;;;;;;11.85;4.32;;;8.20;99.90;;;;;;5047416;28;20043;-68
2022/10/23 02:53:44;;;;;;;11.43;4.45;;;8.00;99.90;;;;;;5028454;28;20502;-68
2022/10/23 02:56:24;;;;;;;11.98;4.25;;;8.00;99.90;;;;;;5036862;28;20029;-68
2022/10/23 02:59:15;;;;;;;11.32;4.45;;;8.00;99.90;;;;;;5043285;28;20036;-69
2022/10/23 03:01:54;;;;;;;18.25;4.65;;;8.20;99.90;;;;;;5045328;28;20033;-67
2022/10/23 03:04:24;;;;;;;8.77;4.68;;;8.20;99.90;;;;;;5048341;28;20052;-69
2022/10/23 03:06:50;;;;;;;9.43;4.32;;;8.30;99.90;;;;;;5044860;28;20025;-68
2022/10/23 03:09:16;;;;;;;13.38;4.90;;;8.30;99.90;;;;;;5047769;28;20136;-67
2022/10/23 03:11:41;;;;;;;12.43;4.32;;;8.30;99.90;;;;;;5048124;28;20453;-69
2022/10/23 03:14:08;;;;;;;12.05;5.30;;;8.40;99.90;;;;;;5047437;28;20519;-68
2022/10/23 03:16:34;;;;;;;11.88;4.30;;;8.40;99.90;;;;;;5047217;28;20477;-68
2022/10/23 03:18:59;;;;;;;7.25;4.20;;;8.30;99.90;;;;;;5047351;28;20055;-70
2022/10/23 03:21:25;;;;;;;9.32;4.22;;;8.20;99.90;;;;;;5045869;28;20108;-68
2022/10/23 03:23:50;;;;;;;8.55;4.55;;;8.30;99.90;;;;;;5048789;28;20065;-67
2022/10/23 03:26:16;;;;;;;16.52;4.13;;;8.40;99.90;;;;;;5045107;28;20139;-69
2022/10/23 03:28:42;;;;;;;8.18;4.30;;;8.50;99.90;;;;;;5047992;28;20028;-66
2022/10/23 03:31:07;;;;;;;12.20;4.55;;;8.30;99.90;;;;;;5045447;28;20744;-72
2022/10/23 03:33:33;;;;;;;9.45;4.07;;;8.20;99.90;;;;;;5047455;28;20043;-68
2022/10/23 03:35:58;;;;;;;11.38;4.55;;;8.10;99.90;;;;;;5047865;28;20037;-68
2022/10/23 03:38:24;;;;;;;10.35;4.20;;;8.00;99.90;;;;;;5045522;28;20079;-69
2022/10/23 03:40:50;;;;;;;8.27;4.10;;;7.90;99.90;;;;;;5048853;28;20448;-67
2022/10/23 03:43:15;;;;;;;11.60;5.00;;;8.10;99.90;;;;;;5046531;28;20036;-68
2022/10/23 03:45:41;;;;;;;14.02;4.47;;;8.20;99.90;;;;;;5047935;28;20436;-68
2022/10/23 03:48:07;;;;;;;12.70;3.80;;;8.30;99.90;;;;;;5046363;28;20107;-73
2022/10/23 03:50:33;;;;;;;12.07;4.20;;;8.40;99.90;;;;;;5047645;28;20033;-68
2022/10/23 03:52:59;;;;;;;10.98;3.85;;;8.50;99.90;;;;;;5047923;28;20041;-67
2022/10/23 03:55:25;;;;;;;8.98;4.40;;;8.70;99.90;;;;;;5046885;28;20218;-67
2022/10/23 03:57:52;;;;;;;13.77;4.13;;;8.60;99.90;;;;;;5046361;28;20432;-68
2022/10/23 04:00:18;;;;;;;9.02;3.75;;;8.40;99.90;;;;;;5046799;28;20496;-68
2022/10/23 04:02:44;;;;;;;8.25;3.90;;;8.30;99.90;;;;;;5046781;28;20033;-68
2022/10/23 04:05:09;;;;;;;10.93;4.25;;;8.30;99.90;;;;;;5047839;28;20039;-72
2022/10/23 04:07:36;;;;;;;14.52;4.07;;;8.30;99.90;;;;;;5045009;28;20052;-68
2022/10/23 04:10:02;;;;;;;7.80;4.00;;;8.20;99.90;;;;;;5048719;28;20036;-67
2022/10/23 04:12:27;;;;;;;7.57;3.92;;;8.40;99.90;;;;;;5047028;28;20064;-68
2022/10/23 04:14:53;;;;;;;8.90;4.13;;;8.50;99.90;;;;;;5048362;28;20390;-68
2022/10/23 04:17:18;;;;;;;6.60;3.80;;;8.30;99.90;;;;;;5044010;28;20075;-70
2022/10/23 04:19:44;;;;;;;16.20;4.30;;;8.20;99.90;;;;;;5049946;28;20150;-69
2022/10/23 04:22:10;;;;;;;8.52;3.97;;;8.30;99.90;;;;;;5051786;28;20028;-70
2022/10/23 04:24:35;;;;;;;14.73;4.50;;;8.30;99.90;;;;;;5049181;28;20040;-67
2022/10/23 04:27:01;;;;;;;7.60;3.65;;;8.20;99.90;;;;;;5051243;28;20040;-68
2022/10/23 04:29:30;;;;;;;12.05;3.15;;;8.20;99.90;;;;;;5050907;28;20052;-68
2022/10/23 04:31:56;;;;;;;12.30;4.00;;;8.30;99.90;;;;;;5034724;28;20025;-69
2022/10/23 04:34:22;;;;;;;8.27;3.70;;;8.40;99.90;;;;;;5049027;28;20041;-69
2022/10/23 04:36:47;;;;;;;5.40;3.72;;;8.20;99.90;;;;;;5051163;28;20086;-67
2022/10/23 04:39:13;;;;;;;8.48;3.85;;;8.20;99.90;;;;;;5048314;28;20029;-68
2022/10/23 04:41:39;;;;;;;11.70;3.97;;;8.10;99.90;;;;;;5049044;28;20033;-69
2022/10/23 04:44:05;;;;;;;9.25;3.75;;;8.10;99.90;;;;;;5050750;28;20094;-67
2022/10/23 04:46:31;;;;;;;5.88;3.40;;;8.10;99.90;;;;;;5050518;28;20052;-70
2022/10/23 04:48:56;;;;;;;8.55;4.25;;;7.90;99.90;;;;;;5050488;28;20056;-69
2022/10/23 04:51:22;;;;;;;7.97;3.90;;;7.90;99.90;;;;;;5049263;28;20100;-66
2022/10/23 04:53:47;;;;;;;13.23;4.13;;;7.90;99.90;;;;;;5050760;28;20041;-68
2022/10/23 04:56:14;;;;;;;10.23;4.43;;;7.90;99.90;;;;;;5050079;28;20620;-69
2022/10/23 04:58:41;;;;;;;10.18;3.80;;;7.90;99.90;;;;;;5049316;28;20029;-69
2022/10/23 05:01:09;;;;;;;11.48;3.90;;;7.90;99.90;;;;;;5050048;28;20036;-70
2022/10/23 05:03:35;;;;;;;9.07;4.07;;;7.90;99.90;;;;;;5050468;28;20028;-68
2022/10/23 05:06:01;;;;;;;9.73;4.03;;;7.90;99.90;;;;;;5050707;28;20048;-70
2022/10/23 05:08:27;;;;;;;9.52;4.25;;;8.00;99.90;;;;;;5048268;28;20033;-67
2022/10/23 05:10:53;;;;;;;9.82;4.20;;;8.00;99.90;;;;;;5050840;28;20074;-68
2022/10/23 05:13:19;;;;;;;8.80;4.00;;;7.90;99.90;;;;;;5048247;28;20068;-69
2022/10/23 05:15:47;;;;;;;6.50;3.53;;;7.90;99.90;;;;;;5049110;28;20091;-67
2022/10/23 05:18:53;;;;;;;15.32;4.13;;;7.90;99.90;;;;;;5049048;28;20025;-73
2022/10/23 05:21:25;;;;;;;8.27;4.55;;;7.90;99.90;;;;;;5046744;28;20056;-68
2022/10/23 05:23:51;;;;;;;10.98;4.80;;;7.90;99.90;;;;;;5049246;28;20037;-70
2022/10/23 05:26:17;;;;;;;11.65;4.43;;;7.90;99.90;;;;;;5050424;28;20033;-68
2022/10/23 05:28:43;;;;;;;13.52;4.90;;;7.90;99.90;;;;;;5047328;28;20021;-70
2022/10/23 05:31:08;;;;;;;11.27;5.43;;;8.00;99.90;;;;;;5044954;28;20040;-69
2022/10/23 05:33:35;;;;;;;11.90;4.57;;;8.10;99.90;;;;;;5069944;28;20867;-67
2022/10/23 05:36:01;;;;;;;14.50;5.07;;;8.10;99.90;;;;;;5049569;28;20120;-69
2022/10/23 05:38:29;;;;;;;11.25;5.03;;;8.20;99.90;;;;;;5050052;28;20064;-69
2022/10/23 05:40:55;;;;;;;13.63;5.85;;;8.30;99.90;;;;;;5048731;28;20482;-68
2022/10/23 05:43:20;;;;;;;12.25;4.78;;;8.20;99.90;;;;;;5048955;28;20064;-66
2022/10/23 05:45:48;;;;;;;15.18;5.28;;;8.00;99.90;;;;;;5050753;28;20029;-71
2022/10/23 05:48:14;;;;;;;11.43;4.75;;;8.00;99.90;;;;;;5049673;28;20044;-71
2022/10/23 05:50:40;;;;;;;17.05;4.80;;;8.00;99.90;;;;;;5049753;28;20139;-67
2022/10/23 05:53:06;;;;;;;11.85;4.95;;;8.10;99.90;;;;;;5048213;28;20470;-68
2022/10/23 05:55:32;;;;;;;16.10;5.60;;;8.00;99.90;;;;;;5036455;28;20600;-67
2022/10/23 05:58:00;;;;;;;18.70;5.43;;;8.00;99.90;;;;;;5044767;28;20029;-69
2022/10/23 06:00:26;;;;;;;16.88;5.43;;;8.00;99.90;;;;;;5040499;28;20071;-68
2022/10/23 06:02:51;;;;;;;16.73;5.97;;;8.00;99.90;;;;;;5049430;28;20402;-67
2022/10/23 06:05:17;;;;;;;14.40;5.32;;;8.10;99.90;;;;;;5049704;28;20025;-67
2022/10/23 06:07:42;;;;;;;19.10;5.38;;;8.20;99.90;;;;;;5049726;28;20029;-67
2022/10/23 06:10:08;;;;;;;10.20;4.90;;;8.20;99.90;;;;;;5045928;28;20403;-69
2022/10/23 06:12:34;;;;;;;15.73;5.80;;;8.20;99.90;;;;;;5048506;28;20100;-68
2022/10/23 06:14:59;;;;;;;10.30;4.95;;;8.30;99.90;;;;;;5046692;28;20033;-68
2022/10/23 06:17:26;;;;;;;14.75;4.97;;;8.30;99.90;;;;;;5046652;28;20082;-67
2022/10/23 06:19:52;;;;;;;12.02;5.05;;;8.30;99.90;;;;;;5047122;28;20025;-69
2022/10/23 06:22:18;;;;;;;10.73;4.97;;;8.40;99.90;;;;;;5045990;28;20029;-72
2022/10/23 06:24:43;;;;;;;17.27;4.93;;;8.40;99.90;;;;;;5049199;28;20119;-68
2022/10/23 06:27:09;;;;;;;10.77;4.75;;;8.50;99.90;;;;;;5047502;28;20064;-68
2022/10/23 06:29:34;;;;;;;11.07;4.32;;;8.50;99.90;;;;;;5046117;28;20626;-68
2022/10/23 06:32:00;;;;;;;11.85;4.47;;;8.60;99.90;;;;;;5041027;28;20103;-68
2022/10/23 06:34:26;;;;;;;9.45;4.68;;;8.70;99.90;;;;;;5047651;28;20040;-68
2022/10/23 06:36:51;;;;;;;15.63;6.60;;;8.80;99.90;;;;;;5047481;28;20106;-69
2022/10/23 06:39:17;;;;;;;11.32;4.50;;;8.80;99.90;;;;;;5047893;28;20112;-72
2022/10/23 06:41:44;;;;;;;8.63;4.53;;;8.80;99.90;;;;;;5047428;28;20105;-68
2022/10/23 06:44:10;;;;;;;8.52;4.25;;;8.80;99.90;;;;;;5045899;28;20041;-68
2022/10/23 06:46:36;;;;;;;13.65;4.43;;;8.80;99.90;;;;;;5041769;28;20218;-69
2022/10/23 06:49:02;;;;;;;11.32;4.38;;;8.70;99.90;;;;;;5046951;28;20454;-67
2022/10/23 06:51:28;;;;;;;10.27;4.32;;;8.70;99.90;;;;;;5048002;28;20118;-66
2022/10/23 06:53:55;;;;;;;15.32;4.85;;;8.70;99.90;;;;;;5048355;28;20036;-68
2022/10/23 06:56:21;;;;;;;10.25;4.78;;;8.70;99.90;;;;;;5032793;28;20147;-71
2022/10/23 06:58:47;;;;;;;10.13;4.68;;;8.70;99.90;;;;;;5048600;28;20029;-68
2022/10/23 07:01:13;;;;;;;10.73;4.75;;;8.80;99.90;;;;;;5048007;28;20509;-69
2022/10/23 07:03:39;;;;;;;12.93;4.70;;;8.90;99.90;;;;;;5047582;28;20029;-67
2022/10/23 07:06:07;;;;;;;15.30;4.70;;;8.90;99.90;;;;;;5046237;28;20090;-68
2022/10/23 07:08:32;;;;;;;10.35;4.38;;;8.90;99.90;;;;;;5046634;28;20031;-68
2022/10/23 07:11:06;;;;;;;15.48;5.50;;;8.90;99.90;;;;;;5048044;28;20468;-68
2022/10/23 07:13:33;;;;;;;19.05;4.28;;;9.00;99.90;;;;;;5039691;28;20041;-68
2022/10/23 07:16:07;;;;;;;14.73;4.68;;;9.00;99.90;;;;;;5044854;28;20033;-67
2022/10/23 07:18:32;;;;;;;16.63;4.05;;;9.00;99.90;;;;;;5043539;28;20021;-66
2022/10/23 07:20:58;;;;;;;11.07;4.38;;;9.00;99.90;;;;;;5036811;28;20032;-66
2022/10/23 07:23:24;;;;;;;12.32;4.30;;;8.90;99.90;;;;;;5048303;28;20037;-65
2022/10/23 07:25:49;;;;;;;11.60;4.13;;;9.00;99.90;;;;;;5047697;28;20946;-65
2022/10/23 07:28:15;;;;;;;11.85;4.57;;;9.10;99.90;;;;;;5047176;28;20037;-66
2022/10/23 07:30:41;;;;;;;11.88;4.25;;;9.30;99.90;;;;;;5048316;28;20851;-65
2022/10/23 07:33:07;;;;;;;12.25;4.22;;;9.30;99.90;;;;;;5045649;28;20051;-65
2022/10/23 07:35:32;;;;;;;8.43;4.30;;;9.30;99.90;;;;;;5045543;28;20041;-65
2022/10/23 07:37:59;;;;;;;11.43;4.03;;;9.40;99.90;;;;;;5041247;28;20073;-66
2022/10/23 07:40:25;;;;;;;10.85;3.92;;;9.40;99.90;;;;;;5044804;28;20147;-66
2022/10/23 07:42:50;;;;;;;13.82;3.88;;;9.50;99.90;;;;;;5048628;28;20132;-65
2022/10/23 07:45:16;;;;;;;8.23;3.83;;;9.60;99.90;;;;;;5048784;28;20053;-67
2022/10/23 07:47:41;;;;;;;14.50;4.00;;;9.80;99.90;;;;;;5047983;28;20593;-67
2022/10/23 07:50:08;;;;;;;8.63;4.18;;;10.00;99.90;;;;;;5047393;28;20040;-65
2022/10/23 07:52:36;;;;;;;14.82;3.90;;;10.20;99.90;;;;;;5047895;28;20029;-67
2022/10/23 07:55:02;;;;;;;13.75;4.15;;;10.40;99.90;;;;;;5052355;28;20044;-66
2022/10/23 07:57:28;;;;;;;11.40;4.15;;;10.40;99.90;;;;;;5052016;28;20029;-65
2022/10/23 07:59:53;;;;;;;7.75;3.88;;;10.70;99.90;;;;;;5053139;28;20354;-66
2022/10/23 08:02:19;;;;;;;6.88;3.50;;;10.90;99.90;;;;;;5052623;28;20630;-69
2022/10/23 08:04:48;;;;;;;5.47;2.97;;;11.20;99.90;;;;;;5051186;28;20025;-66
2022/10/23 08:07:14;;;;;;;10.73;3.80;;;11.30;99.90;;;;;;5052640;28;20025;-66
2022/10/23 08:09:39;;;;;;;6.18;2.47;;;11.40;99.90;;;;;;5047738;28;20665;-65
2022/10/23 08:12:05;;;;;;;11.18;3.55;;;11.60;99.90;;;;;;5047252;28;20545;-66
2022/10/23 08:14:31;;;;;;;4.53;2.88;;;11.90;99.90;;;;;;5049889;28;20036;-67
2022/10/23 08:16:56;;;;;;;13.75;3.25;;;12.00;99.90;;;;;;5051139;28;20355;-67
2022/10/23 08:19:22;;;;;;;6.38;3.13;;;12.20;99.90;;;;;;5052126;28;20029;-67
2022/10/23 08:21:47;;;;;;;6.10;2.70;;;12.50;99.90;;;;;;5051921;28;20025;-66
2022/10/23 08:24:13;;;;;;;8.07;3.33;;;12.70;99.90;;;;;;5052402;28;20059;-66
2022/10/23 08:26:39;;;;;;;8.10;3.30;;;13.00;99.90;;;;;;5050054;28;20033;-68
2022/10/23 08:29:05;;;;;;;7.00;2.50;;;13.20;99.90;;;;;;5048135;28;21604;-66
2022/10/23 08:31:30;;;;;;;4.07;2.72;;;13.50;99.90;;;;;;5047851;28;20025;-66
2022/10/23 08:33:56;;;;;;;7.10;2.63;;;13.80;99.90;;;;;;5041574;28;20129;-66
2022/10/23 08:36:27;;;;;;;8.30;2.20;;;14.10;99.90;;;;;;5043046;28;20130;-69
2022/10/23 08:38:55;;;;;;;7.07;2.80;;;14.30;99.90;;;;;;5046251;28;20056;-65
2022/10/23 08:41:42;;;;;;;8.25;3.20;;;14.60;99.90;;;;;;5050589;28;20397;-67
2022/10/23 08:44:21;;;;;;;5.05;3.08;;;14.70;99.90;;;;;;5046438;28;20565;-65
2022/10/23 08:46:54;;;;;;;4.32;3.08;;;14.80;99.90;;;;;;5046269;28;20115;-67
2022/10/23 08:49:28;;;;;;;5.85;2.70;;;14.70;99.90;;;;;;5050210;28;20025;-65
2022/10/23 08:51:57;;;;;;;6.07;2.67;;;14.90;99.90;;;;;;5048129;28;20385;-66
2022/10/23 08:54:56;;;;;;;4.93;2.45;;;15.10;99.90;;;;;;5045083;28;20120;-71
2022/10/23 08:57:25;;;;;;;5.05;2.53;;;15.30;99.90;;;;;;5049464;28;20431;-66
2022/10/23 09:00:06;;;;;;;5.97;3.15;;;15.60;99.90;;;;;;5050357;28;20060;-67
2022/10/23 09:02:41;;;;;;;9.30;3.13;;;15.80;99.90;;;;;;5050636;28;20047;-65
2022/10/23 09:05:23;;;;;;;2.28;1.58;;;15.90;99.90;;;;;;5044997;28;20382;-65
2022/10/23 09:08:07;;;;;;;3.42;0.90;;;16.20;99.90;;;;;;5048222;28;20025;-67
2022/10/23 09:10:57;;;;;;;4.45;1.20;;;16.40;99.90;;;;;;5047675;28;20060;-66
2022/10/23 09:13:34;;;;;;;6.03;1.10;;;16.60;99.90;;;;;;5050350;28;20060;-65
2022/10/23 09:16:27;;;;;;;7.70;1.35;;;16.70;99.90;;;;;;5048756;28;20476;-65
2022/10/23 09:18:54;;;;;;;3.17;1.25;;;16.80;99.90;;;;;;5047780;28;20025;-66
2022/10/23 09:21:25;;;;;;;3.95;1.73;;;16.80;99.90;;;;;;5045632;28;20414;-66
2022/10/23 09:23:51;;;;;;;5.25;1.95;;;16.90;99.90;;;;;;5049859;28;20040;-65
2022/10/23 09:26:17;;;;;;;3.38;2.00;;;16.90;99.90;;;;;;5051171;28;20025;-67
2022/10/23 09:28:54;;;;;;;4.18;1.70;;;16.90;99.90;;;;;;5046221;28;20567;-67
2022/10/23 09:31:19;;;;;;;4.85;1.30;;;16.90;99.90;;;;;;5049086;28;20035;-66
2022/10/23 09:33:57;;;;;;;9.02;1.30;;;16.90;99.90;;;;;;5045742;28;20198;-65
2022/10/23 09:36:26;;;;;;;3.80;1.10;;;16.90;99.90;;;;;;5049595;28;20501;-65
2022/10/23 09:38:55;;;;;;;1.65;1.10;;;16.90;99.90;;;;;;5049921;28;20133;-67
2022/10/23 09:41:30;;;;;;;3.22;0.90;;;17.20;99.90;;;;;;5051897;28;20065;-67
2022/10/23 09:44:18;;;;;;;3.15;1.23;;;17.50;99.90;;;;;;5050427;28;20075;-67
2022/10/23 09:46:46;;;;;;;3.75;1.40;;;17.80;99.90;;;;;;5049875;28;20100;-66
2022/10/23 09:49:32;;;;;;;2.13;1.13;;;18.00;99.90;;;;;;5050792;28;20127;-67
2022/10/23 09:52:01;;;;;;;6.72;1.23;;;18.30;99.90;;;;;;5055431;28;20469;-66
2022/10/23 09:54:38;;;;;;;3.13;1.40;;;18.50;99.90;;;;;;5070399;28;20036;-68
2022/10/23 09:57:27;;;;;;;4.18;1.00;;;18.70;99.90;;;;;;5070289;28;20397;-68
2022/10/23 10:00:05;;;;;;;2.88;1.00;;;18.90;99.90;;;;;;5070475;28;20071;-68
2022/10/23 10:02:33;;;;;;;1.25;0.60;;;19.20;99.90;;;;;;5069523;28;20477;-69
2022/10/23 10:05:19;;;;;;;1.35;0.50;;;19.30;99.90;;;;;;5070646;28;20033;-66
2022/10/23 10:07:56;;;;;;;1.27;0.40;;;19.50;99.90;;;;;;5069656;28;20032;-69
2022/10/23 10:10:22;;;;;;;0.95;0.50;;;19.70;99.90;;;;;;5069775;28;20029;-66
2022/10/23 10:12:59;;;;;;;3.10;0.68;;;19.90;99.90;;;;;;5069447;28;20153;-67
2022/10/23 10:15:46;;;;;;;1.00;0.50;;;20.00;99.90;;;;;;5070263;28;20035;-68
2022/10/23 10:18:25;;;;;;;3.30;0.50;;;20.10;99.90;;;;;;5070449;28;20457;-66
2022/10/23 10:20:58;;;;;;;1.67;0.88;;;20.30;99.90;;;;;;5069036;28;20641;-69
2022/10/23 10:23:33;;;;;;;0.80;0.60;;;20.40;99.90;;;;;;5070104;28;20036;-67
2022/10/23 10:26:08;;;;;;;1.58;0.60;;;20.30;99.90;;;;;;5069388;28;20021;-66
2022/10/23 10:28:57;;;;;;;3.80;0.88;;;20.40;99.90;;;;;;5049715;28;20055;-67
2022/10/23 10:31:58;;;;;;;1.67;0.88;;;20.50;99.90;;;;;;5046192;28;20048;-67
2022/10/23 10:34:56;;;;;;;2.03;0.77;;;20.70;99.90;;;;;;5046153;28;20087;-69
2022/10/23 10:37:48;;;;;;;2.13;0.70;;;20.70;99.90;;;;;;5044060;28;20040;-67
2022/10/23 10:40:34;;;;;;;5.75;0.68;;;20.80;99.90;;;;;;5042907;28;20049;-69
2022/10/23 10:43:20;;;;;;;3.33;0.80;;;20.90;99.90;;;;;;5048291;28;20040;-67
2022/10/23 10:46:06;;;;;;;1.17;0.63;;;20.90;99.90;;;;;;5015506;28;20049;-68
2022/10/23 10:48:48;;;;;;;3.70;0.80;;;20.90;99.90;;;;;;5046234;28;20127;-69
2022/10/23 10:51:36;;;;;;;1.88;0.57;;;21.00;99.90;;;;;;5047731;28;20102;-67
2022/10/23 10:54:08;;;;;;;0.90;0.70;;;21.10;99.90;;;;;;5029768;28;20075;-66
2022/10/23 10:56:37;;;;;;;1.10;0.60;;;21.20;99.90;;;;;;5046965;28;20068;-67
2022/10/23 10:59:11;;;;;;;0.98;0.50;;;21.30;99.90;;;;;;5046431;28;20031;-66
2022/10/23 11:01:58;;;;;;;0.90;0.70;;;21.40;99.90;;;;;;5044346;28;20497;-68
2022/10/23 11:04:39;;;;;;;3.97;0.75;;;21.60;99.90;;;;;;5047383;28;20090;-68
2022/10/23 11:07:13;;;;;;;2.20;0.70;;;21.70;99.90;;;;;;5043095;28;20040;-68
2022/10/23 11:09:40;;;;;;;1.70;0.80;;;21.60;99.90;;;;;;5046983;28;20106;-67
2022/10/23 11:12:06;;;;;;;1.15;0.70;;;21.60;99.90;;;;;;5046313;28;20036;-68
2022/10/23 11:14:33;;;;;;;1.52;0.80;;;21.60;99.90;;;;;;5046701;28;20082;-68
2022/10/23 11:17:17;;;;;;;2.72;0.90;;;21.60;99.90;;;;;;5052276;28;20076;-68
2022/10/23 11:19:52;;;;;;;1.65;0.60;;;21.70;99.90;;;;;;5047339;28;20025;-68
2022/10/23 11:22:26;;;;;;;3.75;0.85;;;21.70;99.90;;;;;;5047290;28;20104;-68
2022/10/23 11:25:29;;;;;;;3.40;0.70;;;21.80;99.90;;;;;;5045431;28;20028;-66
2022/10/23 11:28:13;;;;;;;3.60;0.70;;;21.80;98.80;;;;;;5042628;28;20040;-69
2022/10/23 11:31:07;;;;;;;1.25;0.60;;;21.70;99.90;;;;;;5042612;28;20041;-68
2022/10/23 11:33:58;;;;;;;2.15;0.70;;;21.80;99.90;;;;;;5040553;28;20025;-69
2022/10/23 11:36:43;;;;;;;1.27;0.80;;;22.00;99.90;;;;;;5045492;28;20675;-68
2022/10/23 11:39:28;;;;;;;6.70;1.42;;;22.10;99.90;;;;;;5043965;28;20040;-69
2022/10/23 11:42:14;;;;;;;1.35;0.88;;;21.70;99.90;;;;;;5045469;28;20029;-68
2022/10/23 11:44:41;;;;;;;1.45;0.82;;;21.40;99.90;;;;;;5044215;28;20041;-68
2022/10/23 11:47:30;;;;;;;1.92;1.00;;;21.40;99.90;;;;;;5046288;28;20025;-68
2022/10/23 11:50:08;;;;;;;2.92;0.95;;;21.30;99.90;;;;;;5056972;28;20029;-68
2022/10/23 11:52:58;;;;;;;3.20;0.70;;;21.30;99.90;;;;;;5041956;28;20029;-68
2022/10/23 11:55:29;;;;;;;1.77;0.82;;;21.40;99.90;;;;;;5045872;28;20132;-69
2022/10/23 11:58:17;;;;;;;3.72;1.00;;;21.50;99.90;;;;;;5042883;28;20028;-68
2022/10/23 12:01:02;;;;;;;3.80;0.90;;;21.50;99.90;;;;;;5045636;28;20481;-68
2022/10/23 12:03:37;;;;;;;1.95;1.10;;;21.30;99.90;;;;;;5042823;28;20047;-69
2022/10/23 12:06:04;;;;;;;5.35;1.27;;;21.10;99.90;;;;;;5046078;28;20037;-68
2022/10/23 12:08:34;;;;;;;2.58;0.85;;;21.10;99.90;;;;;;5044682;28;20040;-69
2022/10/23 12:11:00;;;;;;;4.35;1.00;;;21.10;99.90;;;;;;5047448;28;20427;-68
2022/10/23 12:13:37;;;;;;;1.80;0.70;;;21.00;99.90;;;;;;5043741;28;20128;-70
2022/10/23 12:16:06;;;;;;;1.33;0.75;;;21.10;99.90;;;;;;5047275;28;20033;-68
2022/10/23 12:18:32;;;;;;;2.10;1.10;;;21.10;99.90;;;;;;5045234;28;20040;-68
2022/10/23 12:21:00;;;;;;;5.03;1.10;;;21.10;99.90;;;;;;5042523;28;20021;-69
2022/10/23 12:23:51;;;;;;;3.53;1.20;;;21.10;99.90;;;;;;5046064;28;20040;-67
2022/10/23 12:26:41;;;;;;;5.57;1.00;;;21.10;99.90;;;;;;5046343;28;20067;-67
2022/10/23 12:29:16;;;;;;;3.27;1.07;;;21.00;99.90;;;;;;5028402;28;20109;-68
2022/10/23 12:32:05;;;;;;;6.28;1.30;;;20.90;99.90;;;;;;5040335;28;20094;-68
2022/10/23 12:34:34;;;;;;;2.70;1.20;;;20.70;99.90;;;;;;5044577;28;20033;-68
2022/10/23 12:37:23;;;;;;;2.92;1.20;;;20.60;99.90;;;;;;5040744;28;20033;-68
2022/10/23 12:39:54;;;;;;;1.73;1.08;;;20.50;99.90;;;;;;5042566;28;20492;-68
2022/10/23 12:42:22;;;;;;;2.10;1.20;;;20.40;99.90;;;;;;5051733;28;20040;-68
2022/10/23 12:45:13;;;;;;;7.75;1.30;;;20.40;99.90;;;;;;5050205;28;20052;-70
2022/10/23 12:47:39;;;;;;;2.55;1.60;;;20.30;99.90;;;;;;5045463;28;20059;-68
2022/10/23 12:50:16;;;;;;;4.82;1.33;;;20.30;99.90;;;;;;5050617;28;20029;-68
2022/10/23 12:52:54;;;;;;;3.47;1.30;;;20.20;99.90;;;;;;5045639;28;20059;-67
2022/10/23 12:55:21;;;;;;;3.80;1.30;;;20.20;99.90;;;;;;5045852;28;20108;-68
2022/10/23 12:57:46;;;;;;;5.38;1.40;;;20.10;99.90;;;;;;5050094;28;20178;-67
2022/10/23 13:00:21;;;;;;;3.53;1.23;;;20.20;99.90;;;;;;5051494;28;20471;-66
2022/10/23 13:03:01;;;;;;;2.30;1.10;;;20.30;99.90;;;;;;5050813;28;20029;-69
2022/10/23 13:05:28;;;;;;;4.80;1.30;;;20.50;99.90;;;;;;5051314;28;20082;-68
2022/10/23 13:07:53;;;;;;;3.45;1.30;;;20.60;99.90;;;;;;5050576;28;20029;-67
2022/10/23 13:10:22;;;;;;;1.85;1.17;;;20.70;99.90;;;;;;5051437;28;20067;-68
2022/10/23 13:13:01;;;;;;;6.00;1.50;;;20.80;99.90;;;;;;5049087;28;20032;-66